Time;durP1;ratioP1;P1;durP2;ratioP2;P2;SDS_P1;SDS_P2;PMS_P1;PMS_P2;Temp;Humidity;BMP_temperature;BMP_pressure;BME280_temperature;BME280_humidity;BME280_pressure;Samples;Min_cycle;Max_cycle;Signal;HPM_P1;HPM_P2
2022/07/16 00:03:17;;;;;;;1.13;0.87;;;22.90;46.40;;;;;;5049425;28;20037;-82
2022/07/16 00:05:43;;;;;;;0.88;0.88;;;22.80;46.30;;;;;;5054632;28;20986;-85
2022/07/16 00:08:09;;;;;;;1.05;0.90;;;22.80;46.40;;;;;;5052099;28;20032;-82
2022/07/16 00:10:35;;;;;;;1.17;0.90;;;22.80;46.50;;;;;;5032334;28;20322;-82
2022/07/16 00:13:02;;;;;;;1.30;1.00;;;22.70;46.50;;;;;;5055639;28;20490;-82
2022/07/16 00:15:29;;;;;;;1.15;1.00;;;22.70;46.50;;;;;;5056497;28;20044;-83
2022/07/16 00:20:40;;;;;;;0.80;0.80;;;22.60;46.60;;;;;;5079782;28;20029;-82
2022/07/16 00:23:06;;;;;;;1.00;0.90;;;22.60;46.60;;;;;;5054331;28;20116;-82
2022/07/16 00:25:33;;;;;;;2.50;0.95;;;22.60;46.60;;;;;;5077199;28;20036;-82
2022/07/16 00:27:59;;;;;;;0.80;0.80;;;22.60;46.70;;;;;;5045692;28;20407;-83
2022/07/16 00:30:25;;;;;;;0.88;0.88;;;22.50;46.70;;;;;;5053931;28;20032;-83
2022/07/16 00:32:50;;;;;;;1.10;0.90;;;22.50;46.70;;;;;;5062582;28;20464;-83
2022/07/16 00:35:16;;;;;;;1.10;0.90;;;22.50;46.80;;;;;;5023650;28;20107;-83
2022/07/16 00:37:42;;;;;;;1.15;1.05;;;22.50;46.80;;;;;;5026948;28;20036;-84
2022/07/16 00:40:08;;;;;;;1.48;1.05;;;22.40;46.90;;;;;;5055005;28;20025;-82
2022/07/16 00:42:34;;;;;;;1.50;1.00;;;22.40;46.90;;;;;;5031920;28;20021;-83
2022/07/16 00:44:59;;;;;;;1.13;1.00;;;22.40;46.90;;;;;;5036163;28;20025;-83
2022/07/16 00:47:25;;;;;;;1.20;0.93;;;22.40;47.10;;;;;;5066881;28;20394;-83
2022/07/16 00:49:51;;;;;;;3.58;0.95;;;22.30;47.00;;;;;;5067842;28;20056;-83
2022/07/16 00:52:16;;;;;;;1.27;1.00;;;22.30;47.10;;;;;;5049563;28;20039;-83
2022/07/16 00:54:42;;;;;;;1.55;1.10;;;22.30;47.10;;;;;;5057144;28;20040;-87
2022/07/16 00:57:08;;;;;;;1.02;0.90;;;22.30;47.10;;;;;;5063515;28;20076;-83
2022/07/16 00:59:34;;;;;;;1.77;1.00;;;22.30;47.20;;;;;;5039688;28;20127;-83
2022/07/16 01:01:59;;;;;;;1.23;1.13;;;22.30;47.20;;;;;;5045345;28;20119;-83
2022/07/16 01:04:25;;;;;;;1.10;1.00;;;22.30;47.30;;;;;;5042784;28;20033;-83
2022/07/16 01:06:51;;;;;;;1.13;1.02;;;22.30;47.30;;;;;;5057525;28;20358;-84
2022/07/16 01:09:18;;;;;;;1.45;1.20;;;22.20;47.30;;;;;;5064216;28;20028;-83
2022/07/16 01:11:44;;;;;;;1.75;1.10;;;22.20;47.40;;;;;;5066888;28;20081;-87
2022/07/16 01:14:10;;;;;;;1.17;0.90;;;22.20;47.40;;;;;;5048839;28;20028;-83
2022/07/16 01:16:36;;;;;;;1.85;1.20;;;22.20;47.50;;;;;;5057259;28;20039;-82
2022/07/16 01:19:03;;;;;;;1.35;1.10;;;22.20;47.50;;;;;;5040175;28;20044;-83
2022/07/16 01:21:28;;;;;;;1.42;1.20;;;22.10;47.50;;;;;;5063689;28;20051;-85
2022/07/16 01:23:54;;;;;;;1.25;1.00;;;22.10;47.50;;;;;;5082230;28;20028;-84
2022/07/16 01:26:20;;;;;;;1.23;1.10;;;22.10;47.60;;;;;;5044719;28;20085;-83
2022/07/16 01:28:45;;;;;;;1.42;1.20;;;22.10;47.60;;;;;;5048043;28;20037;-82
2022/07/16 01:31:12;;;;;;;1.17;1.00;;;22.10;47.60;;;;;;5060718;28;20035;-86
2022/07/16 01:33:40;;;;;;;1.55;1.10;;;22.00;47.60;;;;;;5047156;28;20033;-82
2022/07/16 01:36:15;;;;;;;1.00;0.93;;;22.00;47.70;;;;;;5065429;28;20024;-82
2022/07/16 01:38:43;;;;;;;2.35;1.15;;;22.00;47.80;;;;;;5062558;28;20091;-82
2022/07/16 01:41:09;;;;;;;1.45;1.17;;;22.00;47.70;;;;;;5058949;28;20028;-82
2022/07/16 01:43:35;;;;;;;1.63;1.10;;;22.00;47.80;;;;;;5085566;28;20051;-82
2022/07/16 01:46:01;;;;;;;1.33;1.10;;;22.00;47.80;;;;;;5045501;28;20064;-82
2022/07/16 01:48:27;;;;;;;1.23;1.13;;;22.00;47.90;;;;;;5080338;28;20044;-84
2022/07/16 01:50:54;;;;;;;1.20;1.10;;;21.90;47.90;;;;;;5035416;28;20091;-82
2022/07/16 01:53:20;;;;;;;1.50;1.27;;;21.90;47.90;;;;;;5037563;28;20025;-83
2022/07/16 01:55:46;;;;;;;1.08;0.98;;;21.90;48.00;;;;;;5053630;28;20069;-86
2022/07/16 01:58:14;;;;;;;2.92;1.30;;;21.90;48.10;;;;;;5052553;28;20036;-82
2022/07/16 02:00:42;;;;;;;2.13;1.20;;;21.90;48.10;;;;;;5058312;28;20040;-82
2022/07/16 02:03:08;;;;;;;2.65;1.50;;;21.90;48.70;;;;;;5078460;28;20016;-86
2022/07/16 02:05:35;;;;;;;1.63;1.10;;;21.90;48.10;;;;;;5053197;28;20103;-83
2022/07/16 02:08:01;;;;;;;1.67;1.13;;;21.80;48.00;;;;;;5058500;28;20028;-84
2022/07/16 02:10:27;;;;;;;1.40;1.20;;;21.80;48.00;;;;;;5040142;28;20035;-83
2022/07/16 02:12:53;;;;;;;1.65;1.20;;;21.80;48.10;;;;;;5059067;28;20032;-84
2022/07/16 02:15:19;;;;;;;0.95;0.93;;;21.80;48.10;;;;;;5059018;28;20043;-83
2022/07/16 02:17:45;;;;;;;1.00;1.00;;;21.80;48.20;;;;;;5063323;28;20059;-84
2022/07/16 02:20:11;;;;;;;1.90;1.10;;;21.80;48.20;;;;;;5045807;28;20047;-83
2022/07/16 02:22:37;;;;;;;1.05;0.95;;;21.80;48.20;;;;;;5064631;28;20028;-85
2022/07/16 02:25:04;;;;;;;1.30;1.10;;;21.70;48.20;;;;;;5045322;28;20017;-83
2022/07/16 02:27:30;;;;;;;1.85;1.08;;;21.70;48.30;;;;;;5055507;28;20124;-83
2022/07/16 02:29:56;;;;;;;1.40;1.00;;;21.70;48.30;;;;;;5076939;28;20360;-85
2022/07/16 02:32:22;;;;;;;1.35;1.10;;;21.70;48.30;;;;;;5079735;28;20534;-84
2022/07/16 02:34:48;;;;;;;1.27;1.08;;;21.70;48.40;;;;;;5045572;28;20029;-84
2022/07/16 02:37:14;;;;;;;1.00;1.00;;;21.70;48.40;;;;;;5039468;28;20029;-84
2022/07/16 02:39:40;;;;;;;1.35;1.10;;;21.70;48.40;;;;;;5044676;28;20032;-83
2022/07/16 02:42:06;;;;;;;2.80;1.30;;;21.70;48.50;;;;;;5043032;28;20031;-83
2022/07/16 02:44:32;;;;;;;1.38;1.10;;;21.70;48.50;;;;;;5069366;28;20557;-83
2022/07/16 02:46:57;;;;;;;4.07;1.02;;;21.70;48.60;;;;;;5054416;28;20028;-83
2022/07/16 02:49:23;;;;;;;1.30;1.13;;;21.60;48.60;;;;;;5054783;28;20056;-83
2022/07/16 02:51:49;;;;;;;1.52;1.20;;;21.60;48.60;;;;;;5043316;28;20042;-83
2022/07/16 02:54:15;;;;;;;1.27;0.82;;;21.60;48.60;;;;;;5048730;28;20036;-82
2022/07/16 02:56:40;;;;;;;1.50;1.13;;;21.60;48.70;;;;;;5042976;28;20481;-83
2022/07/16 02:59:06;;;;;;;2.40;1.25;;;21.60;48.70;;;;;;5080770;28;20576;-83
2022/07/16 03:01:32;;;;;;;1.48;1.33;;;21.60;48.80;;;;;;5067880;28;20107;-83
2022/07/16 03:03:58;;;;;;;1.20;1.10;;;21.60;48.80;;;;;;5080770;28;20046;-83
2022/07/16 03:06:23;;;;;;;1.92;1.08;;;21.60;48.80;;;;;;5049046;28;20438;-84
2022/07/16 03:08:50;;;;;;;1.48;1.08;;;21.60;49.50;;;;;;5032338;28;20423;-85
2022/07/16 03:11:16;;;;;;;1.75;1.20;;;21.60;48.90;;;;;;5052551;28;20024;-82
2022/07/16 03:13:42;;;;;;;1.30;1.15;;;21.50;48.90;;;;;;5041881;28;20099;-83
2022/07/16 03:16:08;;;;;;;1.38;1.20;;;21.60;49.00;;;;;;5028084;28;20031;-82
2022/07/16 03:18:34;;;;;;;1.17;1.08;;;21.50;48.90;;;;;;5063437;28;20035;-83
2022/07/16 03:20:59;;;;;;;1.17;0.90;;;21.50;49.00;;;;;;5045119;28;20012;-83
2022/07/16 03:23:25;;;;;;;1.20;1.10;;;21.50;49.00;;;;;;5054346;28;20050;-82
2022/07/16 03:25:51;;;;;;;1.80;1.20;;;21.50;49.10;;;;;;5057618;28;20035;-83
2022/07/16 03:28:17;;;;;;;1.23;1.10;;;21.50;49.10;;;;;;5050686;28;20040;-82
2022/07/16 03:30:42;;;;;;;1.58;1.30;;;21.50;49.20;;;;;;5037954;28;20036;-83
2022/07/16 03:33:08;;;;;;;1.17;1.05;;;21.40;49.20;;;;;;5049935;28;20537;-83
2022/07/16 03:35:34;;;;;;;1.25;1.10;;;21.40;49.20;;;;;;5036995;28;20465;-82
2022/07/16 03:40:44;;;;;;;1.23;1.13;;;21.40;49.30;;;;;;5049215;28;20442;-84
2022/07/16 03:43:10;;;;;;;1.60;1.20;;;21.40;49.30;;;;;;5037264;28;20381;-82
2022/07/16 03:45:35;;;;;;;1.58;1.15;;;21.40;49.30;;;;;;5066136;28;20115;-83
2022/07/16 03:48:01;;;;;;;1.10;1.00;;;21.40;50.00;;;;;;5048817;28;20473;-84
2022/07/16 03:50:27;;;;;;;1.20;1.10;;;21.40;49.40;;;;;;5052213;28;21867;-83
2022/07/16 03:52:53;;;;;;;1.95;1.13;;;21.40;49.50;;;;;;5065568;28;20134;-85
2022/07/16 03:55:18;;;;;;;1.65;1.10;;;21.30;49.40;;;;;;5056195;28;20040;-83
2022/07/16 03:57:44;;;;;;;1.30;1.20;;;21.30;49.50;;;;;;5051505;28;20047;-82
2022/07/16 04:00:11;;;;;;;1.60;1.27;;;21.30;49.50;;;;;;5043899;28;20481;-82
2022/07/16 04:02:37;;;;;;;1.30;1.10;;;21.30;49.60;;;;;;4997157;28;20461;-83
2022/07/16 04:05:03;;;;;;;1.25;1.15;;;21.30;49.60;;;;;;5031639;28;20086;-83
2022/07/16 04:07:29;;;;;;;1.38;1.27;;;21.30;49.70;;;;;;5018759;28;20040;-83
2022/07/16 04:09:54;;;;;;;1.05;1.05;;;21.30;49.70;;;;;;5000445;28;20477;-85
2022/07/16 04:12:24;;;;;;;1.25;1.15;;;21.30;49.80;;;;;;5016090;28;20025;-83
2022/07/16 04:14:51;;;;;;;1.15;1.05;;;21.30;49.90;;;;;;5035709;28;20024;-83
2022/07/16 04:17:17;;;;;;;1.30;1.20;;;21.20;49.80;;;;;;5031361;28;20496;-84
2022/07/16 04:19:42;;;;;;;1.75;1.20;;;21.20;49.80;;;;;;5018932;28;20029;-84
2022/07/16 04:22:08;;;;;;;1.20;1.10;;;21.30;50.00;;;;;;5030577;28;20495;-83
2022/07/16 04:24:34;;;;;;;1.38;1.10;;;21.20;50.00;;;;;;5023825;28;20491;-83
2022/07/16 04:27:00;;;;;;;1.73;1.20;;;21.20;50.00;;;;;;5027716;28;20029;-84
2022/07/16 04:29:25;;;;;;;1.52;1.20;;;21.20;50.10;;;;;;5040456;28;20384;-83
2022/07/16 04:31:51;;;;;;;1.13;1.02;;;21.20;50.10;;;;;;5002268;28;20380;-83
2022/07/16 04:34:17;;;;;;;1.40;1.27;;;21.20;50.20;;;;;;5053629;28;21248;-82
2022/07/16 04:36:44;;;;;;;1.65;1.30;;;21.20;50.20;;;;;;5027332;28;20464;-83
2022/07/16 04:39:10;;;;;;;1.40;1.30;;;21.20;50.20;;;;;;5056986;28;20076;-83
2022/07/16 04:41:36;;;;;;;1.58;1.15;;;21.10;50.20;;;;;;5058731;28;20028;-80
2022/07/16 04:44:02;;;;;;;1.52;1.20;;;21.10;50.30;;;;;;5051517;28;20587;-83
2022/07/16 04:46:27;;;;;;;1.40;1.20;;;21.10;51.00;;;;;;5020595;28;20035;-84
2022/07/16 04:48:53;;;;;;;2.58;1.20;;;21.20;50.50;;;;;;5036874;28;20033;-83
2022/07/16 04:51:19;;;;;;;1.77;1.30;;;21.10;50.50;;;;;;5056006;28;20445;-82
2022/07/16 04:53:45;;;;;;;1.33;1.20;;;21.10;50.50;;;;;;5052147;28;20029;-82
2022/07/16 04:56:10;;;;;;;1.45;1.10;;;21.10;50.50;;;;;;5056225;28;20048;-83
2022/07/16 04:58:36;;;;;;;2.17;1.40;;;21.10;50.50;;;;;;5056637;28;20044;-82
2022/07/16 05:01:02;;;;;;;1.85;1.27;;;21.10;50.60;;;;;;5051882;28;20024;-83
2022/07/16 05:03:27;;;;;;;1.30;1.13;;;21.10;50.70;;;;;;5056228;28;20039;-83
2022/07/16 05:05:53;;;;;;;1.38;1.20;;;21.10;50.70;;;;;;5068621;28;20037;-84
2022/07/16 05:08:19;;;;;;;1.52;1.10;;;21.10;50.70;;;;;;5072893;28;20037;-82
2022/07/16 05:10:45;;;;;;;1.27;1.17;;;21.10;50.70;;;;;;5071850;28;20028;-83
2022/07/16 05:13:11;;;;;;;1.30;1.20;;;21.10;50.80;;;;;;5071998;28;20173;-84
2022/07/16 05:15:37;;;;;;;1.27;1.10;;;21.10;50.80;;;;;;5071117;28;20032;-87
2022/07/16 05:18:04;;;;;;;1.60;1.10;;;21.10;50.90;;;;;;5052182;28;20527;-83
2022/07/16 05:20:30;;;;;;;1.15;1.05;;;21.10;50.90;;;;;;5072577;28;20025;-82
2022/07/16 05:22:57;;;;;;;2.13;1.23;;;21.10;51.10;;;;;;5071826;28;20487;-85
2022/07/16 05:25:23;;;;;;;1.40;1.15;;;21.10;51.20;;;;;;5055883;28;20115;-82
2022/07/16 05:27:49;;;;;;;1.90;1.10;;;21.00;51.20;;;;;;5072101;28;20032;-83
2022/07/16 05:30:15;;;;;;;1.65;1.10;;;21.10;51.30;;;;;;5071901;28;20028;-84
2022/07/16 05:32:42;;;;;;;1.33;1.23;;;21.10;51.30;;;;;;5072899;28;20130;-83
2022/07/16 05:35:12;;;;;;;1.83;1.23;;;21.00;51.40;;;;;;5071742;28;20060;-84
2022/07/16 05:37:38;;;;;;;1.27;1.17;;;21.10;51.50;;;;;;5066920;28;20477;-84
2022/07/16 05:40:05;;;;;;;1.40;1.10;;;21.10;51.50;;;;;;5055320;28;20065;-83
2022/07/16 05:42:31;;;;;;;1.60;1.10;;;21.10;51.50;;;;;;5054831;28;20024;-84
2022/07/16 05:44:57;;;;;;;1.85;1.20;;;21.10;51.50;;;;;;5070699;28;20031;-82
2022/07/16 05:47:23;;;;;;;1.20;1.10;;;21.00;51.50;;;;;;5054539;28;20045;-82
2022/07/16 05:49:49;;;;;;;1.00;0.90;;;21.10;51.70;;;;;;5056435;28;20063;-83
2022/07/16 05:52:15;;;;;;;1.15;1.05;;;21.00;51.70;;;;;;5071462;28;20028;-83
2022/07/16 05:54:41;;;;;;;1.63;1.10;;;21.00;51.70;;;;;;5056435;28;20085;-82
2022/07/16 05:57:07;;;;;;;1.00;0.90;;;21.00;51.80;;;;;;5038896;28;20068;-83
2022/07/16 05:59:33;;;;;;;1.65;1.20;;;21.10;52.00;;;;;;5071499;28;20040;-84
2022/07/16 06:01:59;;;;;;;1.80;1.10;;;21.10;52.10;;;;;;5055623;28;20465;-82
2022/07/16 06:04:25;;;;;;;1.25;1.10;;;21.10;52.10;;;;;;5055982;28;20032;-82
2022/07/16 06:06:51;;;;;;;1.05;1.00;;;21.00;52.10;;;;;;5053654;28;20060;-84
2022/07/16 06:09:16;;;;;;;0.80;0.80;;;21.00;52.20;;;;;;5072061;28;20028;-83
2022/07/16 06:11:42;;;;;;;2.28;1.00;;;21.10;52.20;;;;;;5039550;28;20032;-82
2022/07/16 06:14:08;;;;;;;1.83;1.00;;;21.10;52.20;;;;;;5052663;28;20043;-83
2022/07/16 06:16:34;;;;;;;1.10;0.95;;;21.10;52.30;;;;;;5071946;28;20025;-83
2022/07/16 06:19:00;;;;;;;1.27;1.00;;;21.10;52.30;;;;;;5054783;28;20415;-83
2022/07/16 06:21:25;;;;;;;1.58;1.00;;;21.10;52.40;;;;;;5072324;28;20060;-82
2022/07/16 06:23:51;;;;;;;1.00;0.90;;;21.10;52.40;;;;;;5070870;28;20025;-87
2022/07/16 06:26:17;;;;;;;1.13;1.00;;;21.10;52.50;;;;;;5056027;28;20073;-84
2022/07/16 06:28:42;;;;;;;1.48;1.20;;;21.10;52.50;;;;;;5056034;28;20040;-81
2022/07/16 06:31:08;;;;;;;0.77;0.77;;;21.10;52.60;;;;;;5037372;28;20056;-81
2022/07/16 06:33:34;;;;;;;1.50;1.00;;;21.10;52.60;;;;;;5052489;28;20032;-82
2022/07/16 06:36:00;;;;;;;1.30;1.00;;;21.10;52.60;;;;;;5054263;28;20020;-81
2022/07/16 06:38:26;;;;;;;1.00;0.90;;;21.10;52.60;;;;;;5047494;28;20029;-81
2022/07/16 06:40:51;;;;;;;1.05;0.88;;;21.10;52.70;;;;;;5064412;28;20052;-81
2022/07/16 06:43:17;;;;;;;1.75;1.00;;;21.10;52.70;;;;;;5054193;28;20040;-84
2022/07/16 06:45:44;;;;;;;1.50;0.90;;;21.10;52.60;;;;;;5052524;28;20029;-82
2022/07/16 06:48:10;;;;;;;0.73;0.70;;;21.20;52.60;;;;;;5052433;28;20504;-82
2022/07/16 06:50:36;;;;;;;1.83;0.90;;;21.20;52.60;;;;;;5071958;28;20033;-81
2022/07/16 06:53:02;;;;;;;1.92;1.10;;;21.10;52.50;;;;;;5054583;28;20039;-82
2022/07/16 06:55:27;;;;;;;1.38;0.82;;;21.20;52.60;;;;;;5068216;28;20033;-81
2022/07/16 06:57:53;;;;;;;1.10;0.90;;;21.20;52.60;;;;;;5064347;28;20128;-81
2022/07/16 07:00:19;;;;;;;1.33;0.90;;;21.20;52.60;;;;;;5071872;28;20036;-82
2022/07/16 07:02:45;;;;;;;1.02;0.88;;;21.20;52.60;;;;;;5065587;28;20025;-83
2022/07/16 07:05:11;;;;;;;1.30;1.00;;;21.20;52.60;;;;;;5069865;28;20410;-81
2022/07/16 07:07:36;;;;;;;1.55;1.00;;;21.20;52.60;;;;;;5068982;28;20048;-81
2022/07/16 07:10:03;;;;;;;1.63;1.05;;;21.20;52.50;;;;;;5053383;28;20236;-81
2022/07/16 07:12:28;;;;;;;1.38;0.73;;;21.20;52.50;;;;;;5067384;28;20077;-81
2022/07/16 07:14:54;;;;;;;0.98;0.90;;;21.30;52.40;;;;;;5034711;28;20123;-80
2022/07/16 07:17:20;;;;;;;1.70;0.88;;;21.30;52.40;;;;;;5081905;28;20044;-83
2022/07/16 07:19:45;;;;;;;1.23;0.88;;;21.30;52.30;;;;;;5063507;28;20191;-82
2022/07/16 07:22:11;;;;;;;1.42;0.90;;;21.30;52.20;;;;;;5051873;28;20532;-83
2022/07/16 07:24:37;;;;;;;2.05;1.10;;;21.30;52.20;;;;;;5050662;28;20033;-82
2022/07/16 07:27:03;;;;;;;2.00;1.05;;;21.30;52.10;;;;;;5053301;28;20032;-83
2022/07/16 07:29:29;;;;;;;1.80;1.08;;;21.40;52.10;;;;;;5053851;28;20469;-82
2022/07/16 07:31:54;;;;;;;2.40;1.13;;;21.40;51.90;;;;;;5038090;28;20496;-82
2022/07/16 07:34:20;;;;;;;1.50;0.90;;;21.40;51.80;;;;;;5059009;28;20117;-83
2022/07/16 07:36:45;;;;;;;1.77;0.70;;;21.40;51.70;;;;;;5032605;28;20028;-85
2022/07/16 07:39:11;;;;;;;1.15;0.80;;;21.40;51.70;;;;;;5037257;28;20093;-85
2022/07/16 07:41:37;;;;;;;2.05;0.95;;;21.50;51.70;;;;;;5054666;28;20086;-81
2022/07/16 07:44:03;;;;;;;0.80;0.70;;;21.50;51.60;;;;;;5054624;28;20036;-82
2022/07/16 07:46:29;;;;;;;0.95;0.68;;;21.50;51.50;;;;;;5065573;28;20021;-83
2022/07/16 07:48:54;;;;;;;1.90;0.95;;;21.60;51.50;;;;;;5048921;28;20041;-81
2022/07/16 07:51:20;;;;;;;1.08;0.82;;;21.60;52.10;;;;;;5069823;28;20025;-85
2022/07/16 07:53:46;;;;;;;1.70;0.80;;;21.60;51.30;;;;;;5054010;28;20048;-84
2022/07/16 07:56:12;;;;;;;1.13;0.80;;;21.60;51.30;;;;;;5069593;28;20049;-84
2022/07/16 07:58:39;;;;;;;1.30;0.73;;;21.70;51.20;;;;;;5054851;28;20037;-84
2022/07/16 08:01:05;;;;;;;2.60;1.45;;;21.70;51.10;;;;;;5048884;28;20362;-82
2022/07/16 08:03:31;;;;;;;1.25;0.70;;;21.80;51.10;;;;;;5060082;28;20117;-83
2022/07/16 08:05:56;;;;;;;1.92;0.82;;;21.80;51.00;;;;;;5037314;28;20032;-82
2022/07/16 08:08:22;;;;;;;1.00;0.70;;;21.90;50.90;;;;;;5063367;28;20067;-82
2022/07/16 08:10:48;;;;;;;0.60;0.60;;;21.90;50.80;;;;;;5051847;28;20047;-85
2022/07/16 08:13:14;;;;;;;0.85;0.73;;;21.90;50.70;;;;;;5062548;28;20024;-81
2022/07/16 08:15:39;;;;;;;1.10;0.70;;;22.00;50.60;;;;;;5053715;28;20033;-82
2022/07/16 08:18:05;;;;;;;1.05;0.82;;;22.10;50.60;;;;;;5053969;28;20040;-84
2022/07/16 08:20:31;;;;;;;0.98;0.80;;;22.10;50.40;;;;;;5070798;28;20109;-82
2022/07/16 08:22:57;;;;;;;1.10;0.90;;;22.20;50.40;;;;;;5053591;28;20029;-85
2022/07/16 08:28:07;;;;;;;0.65;0.65;;;22.30;50.30;;;;;;5070806;28;20036;-83
2022/07/16 08:30:33;;;;;;;1.70;0.90;;;22.40;50.20;;;;;;5069940;28;20113;-80
2022/07/16 08:32:58;;;;;;;1.13;0.70;;;22.40;50.10;;;;;;5050046;28;20025;-83
2022/07/16 08:35:24;;;;;;;0.85;0.68;;;22.50;50.10;;;;;;5068018;28;20035;-80
2022/07/16 08:37:50;;;;;;;1.17;0.73;;;22.50;50.00;;;;;;5064606;28;20033;-84
2022/07/16 08:40:19;;;;;;;1.15;0.65;;;22.60;49.70;;;;;;5070437;28;20087;-86
2022/07/16 08:42:45;;;;;;;1.02;0.75;;;22.60;49.30;;;;;;5088996;28;20115;-88
2022/07/16 08:45:13;;;;;;;1.27;0.80;;;22.70;49.10;;;;;;5084798;28;20060;-88
2022/07/16 08:47:39;;;;;;;0.90;0.60;;;22.80;49.00;;;;;;5068120;28;20467;-86
2022/07/16 08:50:09;;;;;;;1.15;0.80;;;22.80;48.80;;;;;;5065262;28;20020;-82
2022/07/16 08:52:38;;;;;;;0.60;0.60;;;22.90;48.90;;;;;;5069501;28;20453;-90
2022/07/16 08:55:04;;;;;;;1.48;0.80;;;22.90;48.60;;;;;;5065822;28;20489;-85
2022/07/16 08:57:33;;;;;;;2.00;1.00;;;22.90;48.60;;;;;;5050908;28;20052;-89
2022/07/16 08:59:58;;;;;;;2.15;0.95;;;23.00;48.50;;;;;;5064730;28;20036;-85
2022/07/16 09:02:24;;;;;;;1.27;0.80;;;23.00;48.30;;;;;;5047351;28;20029;-87
2022/07/16 09:04:50;;;;;;;1.33;0.85;;;23.10;48.10;;;;;;5053681;28;20397;-88
2022/07/16 09:07:18;;;;;;;1.85;0.90;;;23.20;48.00;;;;;;5057162;28;20032;-87
2022/07/16 09:09:47;;;;;;;1.17;0.93;;;23.20;47.80;;;;;;5057797;28;20090;-84
2022/07/16 09:12:35;;;;;;;1.52;0.70;;;23.20;47.60;;;;;;5073898;28;20032;-88
2022/07/16 09:15:25;;;;;;;3.28;0.80;;;23.30;47.50;;;;;;5083672;28;20025;-82
2022/07/16 09:18:16;;;;;;;1.60;0.68;;;23.30;47.20;;;;;;5074396;28;20051;-85
2022/07/16 09:20:52;;;;;;;1.88;0.80;;;23.40;47.00;;;;;;5071243;28;20028;-85
2022/07/16 09:23:35;;;;;;;0.70;0.70;;;23.50;46.60;;;;;;5073170;28;20170;-84
2022/07/16 09:26:04;;;;;;;0.53;0.53;;;23.50;46.40;;;;;;5073271;28;20025;-85
2022/07/16 09:28:43;;;;;;;0.98;0.77;;;23.60;46.20;;;;;;5071420;28;20024;-87
2022/07/16 09:31:28;;;;;;;1.48;0.90;;;23.60;46.10;;;;;;5050056;28;20070;-85
2022/07/16 09:34:03;;;;;;;0.63;0.63;;;23.70;45.80;;;;;;5077812;28;20458;-88
2022/07/16 09:36:29;;;;;;;2.30;0.90;;;23.80;45.70;;;;;;5065280;28;20016;-92
2022/07/16 09:38:55;;;;;;;0.85;0.60;;;23.90;45.60;;;;;;5065903;28;20037;-90
2022/07/16 09:41:22;;;;;;;3.08;0.77;;;23.90;45.20;;;;;;5057836;28;20116;-89
2022/07/16 09:43:48;;;;;;;2.35;0.65;;;24.00;45.00;;;;;;5070133;28;20032;-91
2022/07/16 09:46:23;;;;;;;1.30;0.90;;;24.00;44.90;;;;;;5050903;28;20033;-92
2022/07/16 09:48:50;;;;;;;1.70;1.00;;;24.00;44.50;;;;;;5058240;28;20025;-89
2022/07/16 09:51:25;;;;;;;2.00;0.80;;;24.10;44.20;;;;;;5070011;28;20025;-90
2022/07/16 09:53:54;;;;;;;1.50;0.70;;;24.20;43.90;;;;;;5061110;28;20079;-92
2022/07/16 09:56:22;;;;;;;1.63;0.75;;;24.20;43.80;;;;;;5038167;28;20052;-86
2022/07/16 09:58:51;;;;;;;1.02;0.65;;;24.30;43.60;;;;;;5073144;28;20040;-85
2022/07/16 10:01:18;;;;;;;1.08;0.70;;;24.30;43.40;;;;;;5057805;28;20047;-89
2022/07/16 10:03:45;;;;;;;1.83;0.68;;;24.40;43.50;;;;;;5071850;28;20032;-86
2022/07/16 10:06:12;;;;;;;1.30;0.60;;;24.50;43.30;;;;;;5071151;28;20028;-90
2022/07/16 10:08:39;;;;;;;0.73;0.60;;;24.60;43.20;;;;;;5073423;28;20051;-87
2022/07/16 10:11:06;;;;;;;1.42;0.82;;;24.60;43.10;;;;;;5058394;28;20029;-91
2022/07/16 10:13:35;;;;;;;1.10;0.60;;;24.70;42.90;;;;;;5068049;28;20025;-85
2022/07/16 10:16:01;;;;;;;0.68;0.60;;;24.80;42.90;;;;;;5048997;28;20028;-91
2022/07/16 10:18:30;;;;;;;1.45;0.73;;;24.80;42.60;;;;;;5084264;28;20024;-91
2022/07/16 10:21:07;;;;;;;1.40;0.70;;;24.90;42.40;;;;;;5073147;28;20024;-87
2022/07/16 10:23:33;;;;;;;1.08;0.63;;;25.00;42.20;;;;;;5064505;28;20052;-86
2022/07/16 10:26:04;;;;;;;1.75;0.80;;;25.00;41.90;;;;;;5054649;28;20016;-86
2022/07/16 10:28:50;;;;;;;1.40;0.77;;;25.10;41.80;;;;;;5066218;28;20362;-86
2022/07/16 10:31:41;;;;;;;2.08;0.80;;;25.10;41.70;;;;;;5081138;28;20037;-86
2022/07/16 10:34:13;;;;;;;1.58;0.70;;;25.20;41.80;;;;;;5067596;28;20060;-85
2022/07/16 10:36:52;;;;;;;0.85;0.52;;;25.30;41.70;;;;;;5070233;28;20025;-90
2022/07/16 10:39:19;;;;;;;0.82;0.73;;;25.30;41.60;;;;;;5072144;28;20037;-84
2022/07/16 10:41:49;;;;;;;2.92;1.20;;;25.40;41.50;;;;;;5071060;28;20107;-84
2022/07/16 10:44:16;;;;;;;0.77;0.50;;;25.40;41.20;;;;;;5070115;28;20021;-87
2022/07/16 10:46:57;;;;;;;1.77;0.90;;;25.50;41.20;;;;;;5052267;28;20060;-91
2022/07/16 10:49:27;;;;;;;0.57;0.57;;;25.50;41.10;;;;;;5073435;28;20036;-89
2022/07/16 10:51:57;;;;;;;3.70;0.90;;;25.60;41.10;;;;;;5069462;28;20037;-89
2022/07/16 10:54:28;;;;;;;1.70;0.70;;;25.70;41.10;;;;;;5067512;28;20496;-89
2022/07/16 10:56:58;;;;;;;2.38;0.80;;;25.70;40.90;;;;;;5082149;28;20149;-89
2022/07/16 10:59:29;;;;;;;11.15;1.50;;;25.80;40.90;;;;;;5075744;28;20044;-90
2022/07/16 11:02:01;;;;;;;4.45;1.15;;;25.90;40.90;;;;;;5071321;28;20028;-85
2022/07/16 11:04:31;;;;;;;2.47;0.98;;;25.90;40.70;;;;;;5064575;28;20055;-89
2022/07/16 11:06:58;;;;;;;1.95;0.68;;;26.00;40.70;;;;;;5071327;28;20388;-92
2022/07/16 11:09:30;;;;;;;3.35;0.70;;;26.00;41.20;;;;;;5072348;28;20078;-94
2022/07/16 11:12:20;;;;;;;1.75;0.73;;;26.10;40.60;;;;;;5072070;28;20128;-88
2022/07/16 11:14:52;;;;;;;1.27;0.65;;;26.10;40.60;;;;;;5092756;28;20024;-88
2022/07/16 11:17:22;;;;;;;1.23;0.50;;;26.10;40.50;;;;;;5064316;28;20105;-88
2022/07/16 11:19:55;;;;;;;1.42;0.63;;;26.10;40.40;;;;;;5071482;28;20036;-85
2022/07/16 11:22:23;;;;;;;1.45;0.50;;;26.20;40.30;;;;;;5070172;28;20029;-82
2022/07/16 11:24:54;;;;;;;2.22;0.55;;;26.20;40.20;;;;;;5054068;28;20028;-82
2022/07/16 11:27:38;;;;;;;0.90;0.55;;;26.20;40.40;;;;;;5066587;28;20025;-81
2022/07/16 11:30:09;;;;;;;1.33;0.70;;;26.30;40.70;;;;;;5079629;28;20024;-80
2022/07/16 11:32:45;;;;;;;1.50;0.65;;;26.40;40.90;;;;;;5071244;28;20366;-84
2022/07/16 11:35:12;;;;;;;1.38;0.68;;;26.40;41.20;;;;;;5059121;28;20136;-82
2022/07/16 11:37:53;;;;;;;0.60;0.40;;;26.50;41.50;;;;;;5051588;28;20028;-78
2022/07/16 11:40:18;;;;;;;0.98;0.60;;;26.50;41.90;;;;;;5074574;28;20031;-78
2022/07/16 11:42:56;;;;;;;1.45;0.52;;;26.60;42.00;;;;;;5063815;28;20020;-79
2022/07/16 11:45:22;;;;;;;0.82;0.68;;;26.60;42.20;;;;;;5067942;28;20585;-80
2022/07/16 11:48:13;;;;;;;0.50;0.50;;;26.70;42.40;;;;;;5070619;28;20048;-80
2022/07/16 11:50:40;;;;;;;0.50;0.40;;;26.70;42.70;;;;;;5062447;28;20029;-79
2022/07/16 11:53:06;;;;;;;1.00;0.60;;;26.80;42.80;;;;;;5056760;28;20028;-79
2022/07/16 11:55:32;;;;;;;1.23;0.60;;;26.80;42.90;;;;;;5054020;28;20039;-78
2022/07/16 11:57:58;;;;;;;0.65;0.63;;;26.90;43.10;;;;;;5070102;28;20056;-79
2022/07/16 12:00:24;;;;;;;0.45;0.45;;;26.90;43.10;;;;;;5071659;28;20488;-78
2022/07/16 12:02:55;;;;;;;0.40;0.40;;;26.90;43.10;;;;;;5070463;28;20032;-81
2022/07/16 12:05:29;;;;;;;1.17;0.50;;;27.00;43.30;;;;;;5053516;28;20040;-79
2022/07/16 12:07:55;;;;;;;1.25;0.80;;;27.00;43.30;;;;;;5066292;28;20131;-79
2022/07/16 12:10:25;;;;;;;1.55;0.52;;;27.10;43.30;;;;;;5067151;28;20115;-79
2022/07/16 12:13:04;;;;;;;1.85;0.60;;;27.00;43.20;;;;;;5070170;28;20477;-79
2022/07/16 12:15:49;;;;;;;1.85;0.52;;;27.10;43.30;;;;;;5065827;28;20040;-79
2022/07/16 12:18:15;;;;;;;0.52;0.40;;;27.10;43.30;;;;;;5067930;28;20095;-79
2022/07/16 12:20:40;;;;;;;1.23;0.52;;;27.10;43.40;;;;;;5036516;28;20036;-79
2022/07/16 12:23:11;;;;;;;1.00;0.55;;;27.20;43.40;;;;;;5070039;28;20039;-79
2022/07/16 12:25:39;;;;;;;0.50;0.43;;;27.10;43.30;;;;;;5066808;28;20024;-80
2022/07/16 12:28:05;;;;;;;1.58;0.60;;;27.20;43.40;;;;;;5069630;28;20025;-79
2022/07/16 12:30:48;;;;;;;1.73;0.60;;;27.20;43.40;;;;;;5069338;28;20028;-81
2022/07/16 12:33:23;;;;;;;2.20;0.70;;;27.20;43.50;;;;;;5069789;28;20059;-79
2022/07/16 12:35:50;;;;;;;1.15;0.40;;;27.20;43.50;;;;;;5069483;28;20024;-78
2022/07/16 12:38:55;;;;;;;0.90;0.65;;;27.20;43.50;;;;;;5068044;28;20028;-79
2022/07/16 12:41:40;;;;;;;1.05;0.60;;;27.20;43.50;;;;;;5072581;28;20034;-80
2022/07/16 12:44:13;;;;;;;0.63;0.43;;;27.20;43.50;;;;;;5075251;28;20029;-81
2022/07/16 12:46:44;;;;;;;0.70;0.52;;;27.20;43.40;;;;;;5066741;28;20025;-80
2022/07/16 12:49:16;;;;;;;1.00;0.40;;;27.20;43.30;;;;;;5073958;28;20039;-79
2022/07/16 12:51:45;;;;;;;0.70;0.40;;;27.20;43.10;;;;;;5066101;28;20020;-79
2022/07/16 12:54:13;;;;;;;1.63;0.90;;;27.20;43.10;;;;;;5056914;28;20040;-79
2022/07/16 12:59:23;;;;;;;;;;;27.20;43.10;;;;;;5061072;28;20095;-80
2022/07/16 13:01:50;;;;;;;0.63;0.50;;;27.20;43.10;;;;;;5055091;28;19946;-80
2022/07/16 13:04:17;;;;;;;0.63;0.50;;;27.20;43.00;;;;;;5040941;28;20460;-79